New Summerfield, Texas
Current Conditions -  °F | °C
As of 3:35 PM on Saturday 25 Oct 2014 (Local Time) from KJSO Reporting Station
Clear Clear  
Wind Chill: 83°   Ceiling: Unl
Heat Index: 83°   Visibility: 10mi
Dew Point: 60°   Wind: 6mph
Humidity: 46%   Direction: 240°WSW
Pressure: 30.13"   Gusts: NA
Location:  31.98°N, 95.09°W
Report Text: KJSO 252035Z AUTO 24005KT 10SM CLR 28/15 A3013 RMK AO2 T02820157
Loading
Personal Weather Stations






























Interactive Weather Map
Tropical Storm Tracking
New forecast layout! Learn more

10-Day Weather Forecast

Advertisements
Track Severe Weather on mobile